Time;durP1;ratioP1;P1;durP2;ratioP2;P2;SDS_P1;SDS_P2;PMS_P1;PMS_P2;Temp;Humidity;BMP_temperature;BMP_pressure;BME280_temperature;BME280_humidity;BME280_pressure;Samples;Min_cycle;Max_cycle;Signal;HPM_P1;HPM_P2
2023/08/04 00:01:27;;;;;;;8.05;1.52;;;16.10;99.90;;;;;;5062426;28;20037;-68
2023/08/04 00:03:52;;;;;;;5.78;0.93;;;16.20;99.90;;;;;;5067054;28;20513;-68
2023/08/04 00:06:18;;;;;;;3.95;1.25;;;16.20;99.90;;;;;;5065797;28;20048;-68
2023/08/04 00:08:44;;;;;;;5.90;1.35;;;16.20;99.90;;;;;;5065210;28;20487;-68
2023/08/04 00:11:10;;;;;;;5.93;1.42;;;16.20;99.90;;;;;;5065361;28;20033;-68
2023/08/04 00:13:35;;;;;;;5.30;1.20;;;16.10;99.90;;;;;;5064937;28;20502;-68
2023/08/04 00:16:09;;;;;;;5.82;1.25;;;16.10;99.90;;;;;;5082314;28;20044;-68
2023/08/04 00:18:35;;;;;;;2.35;0.90;;;16.10;99.90;;;;;;5084231;28;20045;-68
2023/08/04 00:21:02;;;;;;;9.23;1.40;;;16.10;99.90;;;;;;5069109;28;20119;-69
2023/08/04 00:23:27;;;;;;;8.25;1.45;;;16.10;99.90;;;;;;5068165;28;20036;-68
2023/08/04 00:25:53;;;;;;;7.45;1.15;;;16.00;99.90;;;;;;5069582;28;20060;-68
2023/08/04 00:28:19;;;;;;;6.18;1.15;;;16.10;99.90;;;;;;5069364;28;20059;-68
2023/08/04 00:30:45;;;;;;;8.27;1.20;;;16.00;99.90;;;;;;5069701;28;20421;-68
2023/08/04 00:33:10;;;;;;;3.53;1.02;;;16.00;99.90;;;;;;5070589;28;20097;-68
2023/08/04 00:35:36;;;;;;;5.45;1.10;;;16.00;99.90;;;;;;5069493;28;20032;-68
2023/08/04 00:38:02;;;;;;;8.20;1.30;;;16.00;99.90;;;;;;5068452;28;20443;-68
2023/08/04 00:40:31;;;;;;;6.95;1.10;;;16.00;99.90;;;;;;5067729;28;20055;-68
2023/08/04 00:42:56;;;;;;;11.10;1.52;;;15.90;99.90;;;;;;5085937;28;20159;-68
2023/08/04 00:45:25;;;;;;;5.20;1.33;;;15.90;99.90;;;;;;5068134;28;20423;-68
2023/08/04 00:47:52;;;;;;;4.68;1.50;;;15.90;99.90;;;;;;5070019;28;20088;-68
2023/08/04 00:50:19;;;;;;;8.25;1.23;;;15.90;99.90;;;;;;5068750;28;20425;-68
2023/08/04 00:52:45;;;;;;;4.28;1.30;;;15.90;99.90;;;;;;5083619;28;20080;-68
2023/08/04 00:55:13;;;;;;;9.95;2.28;;;15.90;99.90;;;;;;5068582;28;20044;-68
2023/08/04 00:57:39;;;;;;;8.50;1.60;;;15.90;99.90;;;;;;5069049;28;20036;-68
2023/08/04 01:00:06;;;;;;;4.82;0.95;;;15.80;99.90;;;;;;5070227;28;20447;-68
2023/08/04 01:02:32;;;;;;;6.40;1.42;;;15.80;99.90;;;;;;5084490;28;20214;-68
2023/08/04 01:05:00;;;;;;;5.85;1.17;;;15.80;99.90;;;;;;5069876;28;20099;-68
2023/08/04 01:07:28;;;;;;;4.07;1.30;;;15.80;99.90;;;;;;5067455;28;20475;-68
2023/08/04 01:10:16;;;;;;;9.55;1.27;;;15.80;99.90;;;;;;5068477;28;20135;-68
2023/08/04 01:13:04;;;;;;;3.92;1.13;;;15.80;99.90;;;;;;5068615;28;20490;-68
2023/08/04 01:15:30;;;;;;;10.60;1.13;;;15.80;99.90;;;;;;5067184;28;20068;-68
2023/08/04 01:17:56;;;;;;;7.57;1.33;;;15.90;99.90;;;;;;5067115;28;20040;-68
2023/08/04 01:20:23;;;;;;;4.13;1.45;;;15.90;99.90;;;;;;5069970;28;20044;-67
2023/08/04 01:22:49;;;;;;;8.27;1.30;;;15.80;99.90;;;;;;5084014;28;20398;-68
2023/08/04 01:25:15;;;;;;;6.78;1.30;;;15.80;99.90;;;;;;5068404;28;20137;-68
2023/08/04 01:27:50;;;;;;;5.00;2.05;;;15.80;99.90;;;;;;5066683;28;20518;-68
2023/08/04 01:30:21;;;;;;;2.90;1.33;;;15.90;99.90;;;;;;5084898;28;20044;-68
2023/08/04 01:32:47;;;;;;;4.22;1.38;;;15.80;99.90;;;;;;5068407;28;20402;-68
2023/08/04 01:35:18;;;;;;;6.60;2.42;;;15.90;99.90;;;;;;5084483;28;20055;-68
2023/08/04 01:37:44;;;;;;;6.95;1.55;;;15.90;99.90;;;;;;5067827;28;20056;-68
2023/08/04 01:40:11;;;;;;;8.40;1.67;;;15.90;99.90;;;;;;5066897;28;20044;-68
2023/08/04 01:42:37;;;;;;;9.50;1.45;;;15.90;99.90;;;;;;5069574;28;20127;-68
2023/08/04 01:45:03;;;;;;;3.67;1.58;;;15.90;99.90;;;;;;5065900;28;20194;-68
2023/08/04 01:47:29;;;;;;;4.78;1.63;;;15.90;99.90;;;;;;5068195;28;20063;-68
2023/08/04 01:49:55;;;;;;;8.80;1.52;;;15.90;99.90;;;;;;5066152;28;20402;-68
2023/08/04 01:52:21;;;;;;;5.63;1.40;;;15.80;99.90;;;;;;5067944;28;20059;-67
2023/08/04 01:54:47;;;;;;;5.10;1.40;;;15.90;99.90;;;;;;5067385;28;20091;-68
2023/08/04 01:57:13;;;;;;;6.65;1.60;;;15.90;99.90;;;;;;5067373;28;20402;-69
2023/08/04 01:59:38;;;;;;;7.63;1.60;;;15.90;99.90;;;;;;5067732;28;20075;-68
2023/08/04 02:02:04;;;;;;;10.68;1.60;;;15.90;99.90;;;;;;5066722;28;20037;-68
2023/08/04 02:04:30;;;;;;;4.15;1.40;;;15.90;99.90;;;;;;5069479;28;20052;-69
2023/08/04 02:06:55;;;;;;;7.15;1.10;;;15.90;99.90;;;;;;5082508;28;20559;-68
2023/08/04 02:09:22;;;;;;;3.90;1.13;;;15.90;99.90;;;;;;5062830;28;20254;-69
2023/08/04 02:11:48;;;;;;;8.68;1.50;;;15.90;99.90;;;;;;5058713;28;20718;-68
2023/08/04 02:14:15;;;;;;;3.50;0.88;;;15.90;99.90;;;;;;5066486;28;20571;-68
2023/08/04 02:16:41;;;;;;;7.38;1.30;;;15.90;99.90;;;;;;5083973;28;20080;-69
2023/08/04 02:19:10;;;;;;;6.53;1.42;;;15.90;99.90;;;;;;5082722;28;20088;-69
2023/08/04 02:21:36;;;;;;;4.10;1.40;;;15.80;99.90;;;;;;5084380;28;20048;-69
2023/08/04 02:24:03;;;;;;;3.70;2.45;;;15.80;99.90;;;;;;5065566;28;20048;-69
2023/08/04 02:26:29;;;;;;;4.00;1.95;;;15.80;99.90;;;;;;5084674;28;20488;-69
2023/08/04 02:28:55;;;;;;;3.67;1.92;;;15.80;99.90;;;;;;5083016;28;20095;-69
2023/08/04 02:31:23;;;;;;;4.93;2.00;;;15.80;99.90;;;;;;5079663;28;20040;-69
2023/08/04 02:33:50;;;;;;;4.32;1.27;;;15.90;99.90;;;;;;5066610;28;20048;-69
2023/08/04 02:36:17;;;;;;;8.20;2.83;;;15.80;99.90;;;;;;5065629;28;20044;-69
2023/08/04 02:38:43;;;;;;;4.90;2.10;;;15.80;99.90;;;;;;5067236;28;20056;-68
2023/08/04 02:41:09;;;;;;;13.77;4.90;;;15.90;99.90;;;;;;5064104;28;20541;-68
2023/08/04 02:43:35;;;;;;;5.78;2.38;;;15.80;99.90;;;;;;5067128;28;20471;-68
2023/08/04 02:46:02;;;;;;;3.72;1.20;;;15.80;99.90;;;;;;5066267;28;20051;-68
2023/08/04 02:48:27;;;;;;;1.73;1.00;;;15.80;99.90;;;;;;5083728;28;20297;-68
2023/08/04 02:51:03;;;;;;;2.70;0.90;;;15.80;99.90;;;;;;5065604;28;20091;-68
2023/08/04 02:53:30;;;;;;;4.50;1.25;;;15.80;99.90;;;;;;5082344;28;20487;-68
2023/08/04 02:55:56;;;;;;;6.80;1.15;;;15.70;99.90;;;;;;5083469;28;20044;-68
2023/08/04 02:58:23;;;;;;;8.60;1.50;;;15.70;99.90;;;;;;5066000;28;20040;-68
2023/08/04 03:00:49;;;;;;;7.72;1.67;;;15.60;99.90;;;;;;5066750;28;20091;-69
2023/08/04 03:03:17;;;;;;;2.83;1.08;;;15.60;99.90;;;;;;5064378;28;20044;-68
2023/08/04 03:05:42;;;;;;;4.72;0.93;;;15.60;99.90;;;;;;5083571;28;20072;-68
2023/08/04 03:08:08;;;;;;;2.33;0.82;;;15.60;99.90;;;;;;5048350;28;20083;-68
2023/08/04 03:10:34;;;;;;;4.68;1.30;;;15.50;99.90;;;;;;5071124;28;20083;-68
2023/08/04 03:12:59;;;;;;;10.93;1.02;;;15.50;99.90;;;;;;5065939;28;20447;-67
2023/08/04 03:15:25;;;;;;;4.93;1.20;;;15.50;99.90;;;;;;5082005;28;20085;-68
2023/08/04 03:17:52;;;;;;;2.33;0.90;;;15.50;99.90;;;;;;5067591;28;20118;-68
2023/08/04 03:20:18;;;;;;;4.15;1.30;;;15.40;99.90;;;;;;5064892;28;20052;-68
2023/08/04 03:22:43;;;;;;;5.18;1.17;;;15.40;99.90;;;;;;5066090;28;20048;-69
2023/08/04 03:25:09;;;;;;;5.55;1.25;;;15.30;99.90;;;;;;5047964;28;20538;-68
2023/08/04 03:27:36;;;;;;;3.78;0.98;;;15.30;99.90;;;;;;5082963;28;20079;-68
2023/08/04 03:30:02;;;;;;;4.38;1.08;;;15.40;99.90;;;;;;5065754;28;20052;-68
2023/08/04 03:32:28;;;;;;;6.43;1.23;;;15.30;99.90;;;;;;5066389;28;20569;-68
2023/08/04 03:34:54;;;;;;;7.40;2.00;;;15.40;99.90;;;;;;5066152;28;20048;-69
2023/08/04 03:37:19;;;;;;;6.05;2.03;;;15.30;99.90;;;;;;5047844;28;20048;-69
2023/08/04 03:39:45;;;;;;;7.35;1.33;;;15.40;99.90;;;;;;5065893;28;20490;-68
2023/08/04 03:42:11;;;;;;;6.53;1.27;;;15.40;99.90;;;;;;5080529;28;20135;-68
2023/08/04 03:44:36;;;;;;;1.55;0.88;;;15.40;99.90;;;;;;5066011;28;20067;-68
2023/08/04 03:47:02;;;;;;;9.93;1.95;;;15.40;99.90;;;;;;5064687;28;20071;-68
2023/08/04 03:49:28;;;;;;;5.55;1.27;;;15.40;99.90;;;;;;5065233;28;20049;-68
2023/08/04 03:51:54;;;;;;;3.55;2.03;;;15.40;99.90;;;;;;5064725;28;20095;-69
2023/08/04 03:54:19;;;;;;;4.38;2.05;;;15.40;99.90;;;;;;5064171;28;20064;-69
2023/08/04 03:56:45;;;;;;;4.10;2.83;;;15.40;99.90;;;;;;5065748;28;20132;-69
2023/08/04 03:59:12;;;;;;;3.55;1.58;;;15.40;99.90;;;;;;5065431;28;20045;-69
2023/08/04 04:01:39;;;;;;;5.22;1.40;;;15.30;99.90;;;;;;5066264;28;20040;-68
2023/08/04 04:04:04;;;;;;;3.28;1.30;;;15.40;99.90;;;;;;5081166;28;20056;-68
2023/08/04 04:06:30;;;;;;;3.33;1.17;;;15.40;99.90;;;;;;5065809;28;20048;-68
2023/08/04 04:08:56;;;;;;;10.02;1.63;;;15.40;99.90;;;;;;5048138;28;20059;-68
2023/08/04 04:11:21;;;;;;;3.67;1.20;;;15.40;99.90;;;;;;5048318;28;20095;-69
2023/08/04 04:13:47;;;;;;;8.20;1.00;;;15.40;99.90;;;;;;5065989;28;20514;-68
2023/08/04 04:16:13;;;;;;;2.53;1.20;;;15.40;99.90;;;;;;5064066;28;20131;-69
2023/08/04 04:18:39;;;;;;;3.53;1.10;;;15.50;99.90;;;;;;5065503;28;20537;-68
2023/08/04 04:21:04;;;;;;;2.53;1.10;;;15.50;99.90;;;;;;5081168;28;20041;-68
2023/08/04 04:23:30;;;;;;;3.67;1.40;;;15.50;99.90;;;;;;5082060;28;20057;-69
2023/08/04 04:25:56;;;;;;;3.03;1.48;;;15.50;99.90;;;;;;5064819;28;20040;-68
2023/08/04 04:28:21;;;;;;;2.55;0.68;;;15.60;99.90;;;;;;5064772;28;20516;-69
2023/08/04 04:30:48;;;;;;;0.80;0.75;;;15.60;99.90;;;;;;5065769;28;20142;-69
2023/08/04 04:33:15;;;;;;;7.90;0.70;;;15.50;99.90;;;;;;5064009;28;20041;-68
2023/08/04 04:35:48;;;;;;;4.47;0.95;;;15.40;99.90;;;;;;5065423;28;20127;-69
2023/08/04 04:38:14;;;;;;;1.63;0.65;;;15.40;99.90;;;;;;5065464;28;20045;-68
2023/08/04 04:40:39;;;;;;;2.88;0.82;;;15.50;99.90;;;;;;5065625;28;20059;-69
2023/08/04 04:43:05;;;;;;;2.03;0.80;;;15.50;99.90;;;;;;5080690;28;20036;-68
2023/08/04 04:45:31;;;;;;;1.75;0.73;;;15.50;99.90;;;;;;5065341;28;20141;-68
2023/08/04 04:47:56;;;;;;;2.13;0.60;;;15.40;99.90;;;;;;5081562;28;20402;-69
2023/08/04 04:50:22;;;;;;;0.50;0.50;;;15.40;99.90;;;;;;5064120;28;20055;-68
2023/08/04 04:52:48;;;;;;;2.10;0.60;;;15.40;99.90;;;;;;5081744;28;20122;-69
2023/08/04 04:55:13;;;;;;;3.72;0.70;;;15.30;99.90;;;;;;5064236;28;20057;-68
2023/08/04 04:57:40;;;;;;;0.70;0.70;;;15.30;99.90;;;;;;5064969;28;20533;-68
2023/08/04 05:00:06;;;;;;;1.60;0.90;;;15.30;99.90;;;;;;5063831;28;20048;-69
2023/08/04 05:02:32;;;;;;;1.90;1.20;;;15.30;99.90;;;;;;5066791;28;20182;-69
2023/08/04 05:04:58;;;;;;;2.33;1.75;;;15.30;99.90;;;;;;5067572;28;20115;-68
2023/08/04 05:07:23;;;;;;;3.80;2.35;;;15.20;99.90;;;;;;5084896;28;20040;-69
2023/08/04 05:09:49;;;;;;;1.90;1.80;;;15.20;99.90;;;;;;5077438;28;20040;-69
2023/08/04 05:12:15;;;;;;;4.57;2.13;;;15.20;99.90;;;;;;5063315;28;20044;-68
2023/08/04 05:14:41;;;;;;;6.60;2.63;;;15.20;99.90;;;;;;5067910;28;20044;-69
2023/08/04 05:17:07;;;;;;;4.30;2.35;;;15.20;99.90;;;;;;5066770;28;20056;-68
2023/08/04 05:19:33;;;;;;;5.53;2.17;;;15.20;99.90;;;;;;5068649;28;20048;-68
2023/08/04 05:21:58;;;;;;;1.00;0.90;;;15.20;99.90;;;;;;5067364;28;20494;-68
2023/08/04 05:24:24;;;;;;;0.93;0.80;;;15.20;99.90;;;;;;5069364;28;20769;-68
2023/08/04 05:26:50;;;;;;;0.93;0.55;;;15.30;99.90;;;;;;5068060;28;20131;-68
2023/08/04 05:29:15;;;;;;;2.17;0.85;;;15.20;99.90;;;;;;5067305;28;20052;-69
2023/08/04 05:31:41;;;;;;;2.17;0.50;;;15.30;99.90;;;;;;5085242;28;20041;-68
2023/08/04 05:34:07;;;;;;;1.35;0.60;;;15.30;99.90;;;;;;5066905;28;20482;-68
2023/08/04 05:36:33;;;;;;;4.55;0.75;;;15.40;99.90;;;;;;5050550;28;20127;-69
2023/08/04 05:38:58;;;;;;;2.83;0.93;;;15.40;99.90;;;;;;5068228;28;20037;-68
2023/08/04 05:41:24;;;;;;;0.60;0.60;;;15.50;99.90;;;;;;5051177;28;20041;-68
2023/08/04 05:43:50;;;;;;;1.00;0.60;;;15.40;99.90;;;;;;5067087;28;20106;-69
2023/08/04 05:46:16;;;;;;;0.40;0.40;;;15.50;99.90;;;;;;5068903;28;20052;-68
2023/08/04 05:48:41;;;;;;;1.42;0.50;;;15.50;99.90;;;;;;5069109;28;20044;-68
2023/08/04 05:51:07;;;;;;;1.52;0.70;;;15.50;99.90;;;;;;5066694;28;20410;-68
2023/08/04 05:53:33;;;;;;;0.80;0.60;;;15.50;99.90;;;;;;5068115;28;20049;-68
2023/08/04 05:55:59;;;;;;;0.70;0.70;;;15.60;99.90;;;;;;5066074;28;20132;-68
2023/08/04 05:58:25;;;;;;;1.75;1.15;;;15.60;99.90;;;;;;5084596;28;20125;-68
2023/08/04 06:00:51;;;;;;;0.77;0.73;;;15.70;99.90;;;;;;5066431;28;20079;-69
2023/08/04 06:03:16;;;;;;;1.08;0.80;;;15.70;99.90;;;;;;5084446;28;20059;-69
2023/08/04 06:05:43;;;;;;;2.60;0.70;;;15.80;99.90;;;;;;5072174;28;20490;-68
2023/08/04 06:08:08;;;;;;;2.97;0.50;;;15.80;99.90;;;;;;5066479;28;20052;-68
2023/08/04 06:10:35;;;;;;;0.70;0.70;;;15.90;99.90;;;;;;5067409;28;20056;-68
2023/08/04 06:13:02;;;;;;;6.28;0.80;;;16.00;99.90;;;;;;5066194;28;20048;-68
2023/08/04 06:15:28;;;;;;;1.63;0.80;;;16.00;99.90;;;;;;5084074;28;20048;-68
2023/08/04 06:17:57;;;;;;;0.77;0.77;;;16.10;99.90;;;;;;5081162;28;20037;-68
2023/08/04 06:20:23;;;;;;;2.78;0.90;;;16.20;99.90;;;;;;5065970;28;20123;-68
2023/08/04 06:22:48;;;;;;;1.35;0.80;;;16.20;99.90;;;;;;5049400;28;20036;-68
2023/08/04 06:25:14;;;;;;;1.65;0.82;;;16.30;99.90;;;;;;5068542;28;20091;-68
2023/08/04 06:27:41;;;;;;;2.63;1.00;;;16.30;99.90;;;;;;5066754;28;20048;-68
2023/08/04 06:30:07;;;;;;;1.75;0.80;;;16.40;99.90;;;;;;5067441;28;20525;-68
2023/08/04 06:32:34;;;;;;;5.30;1.17;;;16.40;99.90;;;;;;5067968;28;20459;-68
2023/08/04 06:35:00;;;;;;;2.22;0.93;;;16.40;99.90;;;;;;5048332;28;20040;-68
2023/08/04 06:37:26;;;;;;;2.70;1.00;;;16.50;99.90;;;;;;5068447;28;20375;-68
2023/08/04 06:39:52;;;;;;;2.25;0.93;;;16.40;99.90;;;;;;5048556;28;20055;-68
2023/08/04 06:42:18;;;;;;;1.63;0.70;;;16.50;99.90;;;;;;5067872;28;20045;-68
2023/08/04 06:44:45;;;;;;;1.08;0.85;;;16.50;99.90;;;;;;5065937;28;20040;-68
2023/08/04 06:47:12;;;;;;;3.40;1.00;;;16.50;99.90;;;;;;5066309;28;20105;-68
2023/08/04 06:49:38;;;;;;;1.15;0.85;;;16.50;99.90;;;;;;5067332;28;20143;-68
2023/08/04 06:52:04;;;;;;;5.03;1.05;;;16.50;99.90;;;;;;5065072;28;20186;-68
2023/08/04 06:54:29;;;;;;;3.33;1.10;;;16.40;99.90;;;;;;5068219;28;20542;-68
2023/08/04 06:56:55;;;;;;;2.92;1.38;;;16.50;99.90;;;;;;5064811;28;20048;-69
2023/08/04 06:59:21;;;;;;;2.78;1.08;;;16.50;99.90;;;;;;5066814;28;20553;-69
2023/08/04 07:01:47;;;;;;;3.20;1.20;;;16.50;99.90;;;;;;5061561;28;20053;-68
2023/08/04 07:04:13;;;;;;;3.50;1.00;;;16.60;99.90;;;;;;5066424;28;20394;-68
2023/08/04 07:06:38;;;;;;;4.30;1.33;;;16.60;99.90;;;;;;5082768;28;20406;-69
2023/08/04 07:09:04;;;;;;;2.78;1.17;;;16.60;99.90;;;;;;5065117;28;20182;-68
2023/08/04 07:11:30;;;;;;;1.55;0.93;;;16.70;99.90;;;;;;5066305;28;20060;-70
2023/08/04 07:13:55;;;;;;;4.55;1.10;;;16.70;99.90;;;;;;5047012;28;20570;-68
2023/08/04 07:16:21;;;;;;;4.75;1.23;;;16.70;99.90;;;;;;5066033;28;20567;-68
2023/08/04 07:18:47;;;;;;;2.58;1.30;;;16.70;99.90;;;;;;5065915;28;20048;-68
2023/08/04 07:21:14;;;;;;;1.13;0.98;;;16.70;99.90;;;;;;5067344;28;20037;-68
2023/08/04 07:23:41;;;;;;;3.92;0.82;;;16.80;99.90;;;;;;5081993;28;20059;-68
2023/08/04 07:26:08;;;;;;;1.80;0.98;;;16.90;99.90;;;;;;5065274;28;20067;-68
2023/08/04 07:28:35;;;;;;;4.25;1.05;;;16.90;99.90;;;;;;5062260;28;20561;-68
2023/08/04 07:31:08;;;;;;;7.00;0.90;;;17.00;99.90;;;;;;5066543;28;20048;-69
2023/08/04 07:33:35;;;;;;;4.05;1.25;;;17.10;99.90;;;;;;5066195;28;20047;-68
2023/08/04 07:36:02;;;;;;;3.50;0.90;;;17.20;99.90;;;;;;5064214;28;20064;-68
2023/08/04 07:38:28;;;;;;;8.10;1.38;;;17.20;99.90;;;;;;5082877;28;20075;-68
2023/08/04 07:40:55;;;;;;;2.85;0.93;;;17.30;99.90;;;;;;5048599;28;20048;-68
2023/08/04 07:43:20;;;;;;;3.63;1.25;;;17.40;99.90;;;;;;5082207;28;20500;-68
2023/08/04 07:45:46;;;;;;;6.35;1.30;;;17.40;99.90;;;;;;5065313;28;20119;-68
2023/08/04 07:48:12;;;;;;;4.95;1.10;;;17.50;99.90;;;;;;5056857;28;20072;-68
2023/08/04 07:50:40;;;;;;;1.60;0.82;;;17.60;99.90;;;;;;5049270;28;20113;-68
2023/08/04 07:53:06;;;;;;;2.60;1.08;;;17.60;99.90;;;;;;5063166;28;20036;-69
2023/08/04 07:55:36;;;;;;;1.10;0.90;;;17.60;99.90;;;;;;5066202;28;20408;-67
2023/08/04 07:58:08;;;;;;;4.00;1.15;;;17.60;99.90;;;;;;5064556;28;20413;-68
2023/08/04 08:00:34;;;;;;;4.18;1.02;;;17.70;99.90;;;;;;5065465;28;20452;-68
2023/08/04 08:03:00;;;;;;;5.55;1.10;;;17.70;99.90;;;;;;5082199;28;20070;-68
2023/08/04 08:05:26;;;;;;;4.60;1.25;;;17.70;99.90;;;;;;5064600;28;20471;-68
2023/08/04 08:07:52;;;;;;;7.93;1.02;;;17.70;99.90;;;;;;5065713;28;20033;-68
2023/08/04 08:10:18;;;;;;;8.15;1.50;;;17.70;99.90;;;;;;5069088;28;20398;-68
2023/08/04 08:12:44;;;;;;;5.32;1.30;;;17.70;99.90;;;;;;5065861;28;20387;-68
2023/08/04 08:15:11;;;;;;;3.00;1.10;;;17.70;99.90;;;;;;5064569;28;20083;-68
2023/08/04 08:17:37;;;;;;;1.83;1.02;;;17.80;99.90;;;;;;5065798;28;20044;-68
2023/08/04 08:20:05;;;;;;;4.53;1.10;;;17.70;99.90;;;;;;5074991;28;20051;-68
2023/08/04 08:22:31;;;;;;;6.07;1.10;;;17.60;99.90;;;;;;5059049;28;20098;-69
2023/08/04 08:24:57;;;;;;;8.50;1.20;;;17.50;99.90;;;;;;5064698;28;20432;-69
2023/08/04 08:27:23;;;;;;;3.50;1.00;;;17.30;99.90;;;;;;5065364;28;20036;-71
2023/08/04 08:29:56;;;;;;;4.50;1.67;;;17.30;99.90;;;;;;5064406;28;20052;-72
2023/08/04 08:32:22;;;;;;;9.27;3.70;;;17.20;99.90;;;;;;5060312;28;20057;-74
2023/08/04 08:34:49;;;;;;;9.38;3.92;;;17.10;99.90;;;;;;5047518;28;20052;-73
2023/08/04 08:37:14;;;;;;;5.65;2.22;;;17.00;99.90;;;;;;5064856;28;20117;-72
2023/08/04 08:39:40;;;;;;;5.00;1.70;;;17.00;99.90;;;;;;5067244;28;20445;-74
2023/08/04 08:42:06;;;;;;;7.68;2.67;;;16.90;99.90;;;;;;5068694;28;20569;-73
2023/08/04 08:44:32;;;;;;;2.75;1.08;;;16.80;99.90;;;;;;5050535;28;20085;-73
2023/08/04 08:46:57;;;;;;;3.75;1.00;;;16.80;99.90;;;;;;5068234;28;20048;-74
2023/08/04 08:49:27;;;;;;;5.03;0.90;;;16.80;99.90;;;;;;5067445;28;20040;-74
2023/08/04 08:51:56;;;;;;;2.63;0.98;;;16.90;99.90;;;;;;5035101;28;20126;-74
2023/08/04 08:54:22;;;;;;;6.88;1.13;;;17.30;99.90;;;;;;5068052;28;20048;-74
2023/08/04 08:56:53;;;;;;;11.63;1.80;;;17.60;99.90;;;;;;5048926;28;20048;-74
2023/08/04 08:59:18;;;;;;;5.47;1.38;;;18.10;99.90;;;;;;5069157;28;20128;-73
2023/08/04 09:01:44;;;;;;;5.07;1.75;;;18.30;99.90;;;;;;5066698;28;20127;-72
2023/08/04 09:04:10;;;;;;;3.40;1.20;;;18.40;99.90;;;;;;5052210;28;20045;-72
2023/08/04 09:06:36;;;;;;;11.93;1.80;;;18.50;99.90;;;;;;5050999;28;20049;-73
2023/08/04 09:09:02;;;;;;;7.25;1.40;;;18.90;99.90;;;;;;5038320;28;20055;-72
2023/08/04 09:11:29;;;;;;;7.95;1.20;;;18.90;99.90;;;;;;5067587;28;20052;-72
2023/08/04 09:13:56;;;;;;;9.20;1.55;;;18.90;99.90;;;;;;5068324;28;20117;-71
2023/08/04 09:16:36;;;;;;;4.10;1.00;;;18.70;99.90;;;;;;5068278;28;20490;-71
2023/08/04 09:19:04;;;;;;;4.43;1.55;;;18.60;99.90;;;;;;5083550;28;20059;-71
2023/08/04 09:21:31;;;;;;;6.82;1.20;;;18.30;99.90;;;;;;5068994;28;20053;-71
2023/08/04 09:23:56;;;;;;;2.13;0.98;;;18.20;99.90;;;;;;5049624;28;20051;-72
2023/08/04 09:26:22;;;;;;;6.03;1.10;;;18.30;99.90;;;;;;5068081;28;20048;-72
2023/08/04 09:29:05;;;;;;;6.22;1.95;;;18.20;99.90;;;;;;5050308;28;20037;-71
2023/08/04 09:31:39;;;;;;;3.60;0.82;;;18.10;99.90;;;;;;5068358;28;20048;-71
2023/08/04 09:34:06;;;;;;;7.53;1.17;;;18.20;99.90;;;;;;5085096;28;20044;-72
2023/08/04 09:36:41;;;;;;;6.20;1.45;;;18.30;99.90;;;;;;5066283;28;20057;-72
2023/08/04 09:39:09;;;;;;;4.22;1.15;;;18.30;99.90;;;;;;5073170;28;20048;-72
2023/08/04 09:41:37;;;;;;;5.05;1.17;;;18.50;99.90;;;;;;5048355;28;20040;-72
2023/08/04 09:44:05;;;;;;;3.78;0.80;;;18.80;99.90;;;;;;5051024;28;20406;-71
2023/08/04 09:46:31;;;;;;;4.97;1.20;;;18.90;99.90;;;;;;5066788;28;20097;-71
2023/08/04 09:48:58;;;;;;;4.03;0.90;;;18.80;99.90;;;;;;5050135;28;20387;-71
2023/08/04 09:51:24;;;;;;;5.38;1.02;;;18.70;99.90;;;;;;5050142;28;20056;-71
2023/08/04 09:53:54;;;;;;;5.70;1.00;;;18.60;99.90;;;;;;5065718;28;20061;-72
2023/08/04 09:56:21;;;;;;;2.03;0.82;;;18.60;99.90;;;;;;5060226;28;20060;-71
2023/08/04 09:58:48;;;;;;;9.73;1.33;;;18.70;99.90;;;;;;5040157;28;20036;-72
2023/08/04 10:01:16;;;;;;;6.20;1.00;;;19.00;99.90;;;;;;5051125;28;20063;-71
2023/08/04 10:03:43;;;;;;;4.78;1.17;;;19.10;99.90;;;;;;5083017;28;20037;-71
2023/08/04 10:06:09;;;;;;;3.97;0.98;;;19.20;99.90;;;;;;5046778;28;20044;-71
2023/08/04 10:08:40;;;;;;;3.45;1.02;;;19.10;99.90;;;;;;5055137;28;20048;-72
2023/08/04 10:11:07;;;;;;;3.22;0.90;;;19.00;99.90;;;;;;5065860;28;20399;-71
2023/08/04 10:13:45;;;;;;;5.97;1.00;;;18.80;99.90;;;;;;5084480;28;20040;-71
2023/08/04 10:16:15;;;;;;;4.13;1.05;;;18.90;99.90;;;;;;5065252;28;20048;-71
2023/08/04 10:19:02;;;;;;;5.32;1.35;;;19.00;99.90;;;;;;5066451;28;20037;-71
2023/08/04 10:21:34;;;;;;;5.45;1.25;;;18.90;99.90;;;;;;5035163;28;20047;-71
2023/08/04 10:24:02;;;;;;;4.63;1.50;;;19.00;99.90;;;;;;5065095;28;20048;-70
2023/08/04 10:26:32;;;;;;;6.38;1.05;;;18.90;99.90;;;;;;5066317;28;20175;-70
2023/08/04 10:29:03;;;;;;;3.63;0.98;;;18.80;99.90;;;;;;5067025;28;20079;-71
2023/08/04 10:31:52;;;;;;;3.47;1.00;;;18.90;99.90;;;;;;5050506;28;20569;-71
2023/08/04 10:34:27;;;;;;;2.08;1.00;;;19.00;99.90;;;;;;5081661;28;20056;-70
2023/08/04 10:37:17;;;;;;;1.92;0.98;;;19.30;99.90;;;;;;5052786;28;20106;-70
2023/08/04 10:39:44;;;;;;;6.55;1.20;;;19.60;99.90;;;;;;5059440;28;20075;-71
2023/08/04 10:42:12;;;;;;;2.50;1.00;;;19.90;99.90;;;;;;5081757;28;20490;-71
2023/08/04 10:44:50;;;;;;;5.55;1.48;;;20.00;99.90;;;;;;5066170;28;20567;-71
2023/08/04 10:47:30;;;;;;;4.90;1.20;;;20.10;99.90;;;;;;5063284;28;20050;-70
2023/08/04 10:49:58;;;;;;;5.90;1.20;;;20.30;99.90;;;;;;5064672;28;21144;-71
2023/08/04 10:52:24;;;;;;;3.42;0.90;;;20.40;99.90;;;;;;5065838;28;20080;-69
2023/08/04 10:54:52;;;;;;;4.55;1.17;;;20.30;99.90;;;;;;5064048;28;20056;-70
2023/08/04 10:57:22;;;;;;;5.88;1.65;;;20.20;99.90;;;;;;5066986;28;20059;-70
2023/08/04 10:59:49;;;;;;;4.85;1.33;;;20.00;99.90;;;;;;5065433;28;20083;-70
2023/08/04 11:02:22;;;;;;;7.93;1.15;;;19.90;99.90;;;;;;5045590;28;20036;-70
2023/08/04 11:04:48;;;;;;;6.15;1.10;;;19.60;99.90;;;;;;5066357;28;20060;-70
2023/08/04 11:07:15;;;;;;;3.70;1.10;;;19.50;99.90;;;;;;5065714;28;20052;-69
2023/08/04 11:09:42;;;;;;;2.90;1.00;;;19.60;99.90;;;;;;5066346;28;20485;-69
2023/08/04 11:12:09;;;;;;;7.47;1.58;;;19.80;99.90;;;;;;5047647;28;20415;-69
2023/08/04 11:14:35;;;;;;;6.65;1.08;;;19.80;99.90;;;;;;5066227;28;20490;-69
2023/08/04 11:17:02;;;;;;;4.97;1.30;;;19.80;99.90;;;;;;5064279;28;20089;-69
2023/08/04 11:19:29;;;;;;;3.60;0.93;;;19.70;99.90;;;;;;5064933;28;20084;-69
2023/08/04 11:21:54;;;;;;;2.67;1.17;;;19.80;99.90;;;;;;5074776;28;20041;-69
2023/08/04 11:24:24;;;;;;;1.95;0.80;;;20.00;99.90;;;;;;5063621;28;20056;-69
2023/08/04 11:26:53;;;;;;;;;;;20.20;99.90;;;;;;5067163;28;20044;-69
2023/08/04 11:29:19;;;;;;;1.23;0.55;;;20.30;98.60;;;;;;5047364;28;20433;-69
2023/08/04 11:31:47;;;;;;;4.20;0.98;;;20.40;99.90;;;;;;5060892;28;20032;-69
2023/08/04 11:34:14;;;;;;;2.78;0.60;;;20.50;97.60;;;;;;5064852;28;20057;-69
2023/08/04 11:36:41;;;;;;;5.07;0.90;;;20.50;99.90;;;;;;5065227;28;20429;-70
2023/08/04 11:39:07;;;;;;;2.75;0.90;;;20.60;99.90;;;;;;5048694;28;20112;-69
2023/08/04 11:41:33;;;;;;;2.78;0.73;;;20.50;95.30;;;;;;5062685;28;20083;-69
2023/08/04 11:43:59;;;;;;;2.70;0.77;;;20.50;99.90;;;;;;5066289;28;20078;-69
2023/08/04 11:46:30;;;;;;;4.32;1.02;;;20.50;95.30;;;;;;5059861;28;20055;-69
2023/08/04 11:48:56;;;;;;;5.18;0.88;;;20.50;98.50;;;;;;5060833;28;20055;-69
2023/08/04 11:51:22;;;;;;;6.65;0.98;;;20.70;99.90;;;;;;5058080;28;20041;-69
2023/08/04 11:53:49;;;;;;;2.90;0.95;;;20.70;99.90;;;;;;5065016;28;20491;-69
2023/08/04 11:56:15;;;;;;;1.48;0.88;;;20.70;98.30;;;;;;5064818;28;20040;-69
2023/08/04 11:58:43;;;;;;;2.75;0.60;;;20.70;96.80;;;;;;5047509;28;20109;-69
2023/08/04 12:01:26;;;;;;;3.47;1.02;;;20.70;95.40;;;;;;5065237;28;20206;-69
2023/08/04 12:03:52;;;;;;;3.67;1.13;;;20.70;98.50;;;;;;5079855;28;20412;-68
2023/08/04 12:06:23;;;;;;;7.30;1.38;;;20.60;99.90;;;;;;5065085;28;20623;-68
2023/08/04 12:08:58;;;;;;;4.78;1.27;;;20.50;99.90;;;;;;5080887;28;20041;-68
2023/08/04 12:11:27;;;;;;;5.43;1.17;;;20.40;99.90;;;;;;5063784;28;20536;-68
2023/08/04 12:14:06;;;;;;;5.30;1.20;;;20.30;99.90;;;;;;5069057;28;20099;-68
2023/08/04 12:16:31;;;;;;;5.32;1.00;;;20.20;99.90;;;;;;5066043;28;20048;-69
2023/08/04 12:19:15;;;;;;;1.42;0.80;;;20.10;97.10;;;;;;5068488;28;20102;-68
2023/08/04 12:21:41;;;;;;;3.70;0.98;;;20.00;98.10;;;;;;5067616;28;20051;-68
2023/08/04 12:24:07;;;;;;;4.43;0.93;;;19.90;99.90;;;;;;5052289;28;20048;-68
2023/08/04 12:26:32;;;;;;;6.13;1.00;;;19.80;99.90;;;;;;5069375;28;20033;-69
2023/08/04 12:28:58;;;;;;;4.07;0.98;;;19.70;99.90;;;;;;5069259;28;20123;-68
2023/08/04 12:31:24;;;;;;;3.10;1.08;;;19.60;99.90;;;;;;5071366;28;20045;-69
2023/08/04 12:33:50;;;;;;;5.03;1.30;;;19.50;99.90;;;;;;5067119;28;20552;-68
2023/08/04 12:36:15;;;;;;;3.53;0.80;;;19.40;99.90;;;;;;5067697;28;20052;-68
2023/08/04 12:38:41;;;;;;;2.80;0.98;;;19.40;99.90;;;;;;5066514;28;20052;-68
2023/08/04 12:41:09;;;;;;;3.70;1.05;;;19.40;99.90;;;;;;5070317;28;20044;-69
2023/08/04 12:43:35;;;;;;;1.45;0.68;;;19.50;99.90;;;;;;5068200;28;20029;-68
2023/08/04 12:46:00;;;;;;;3.55;1.05;;;19.50;99.90;;;;;;5069016;28;20040;-69
2023/08/04 12:48:26;;;;;;;4.60;0.95;;;19.50;99.90;;;;;;5068847;28;20045;-68